createdAt,value
2023-03-26T00:01:37.066Z,15.50
2023-03-26T00:04:06.809Z,15.60
2023-03-26T00:06:39.121Z,13.90
2023-03-26T00:09:09.276Z,16.10
2023-03-26T00:11:38.064Z,14.40
2023-03-26T00:14:08.048Z,18.00
2023-03-26T00:16:38.040Z,19.90
2023-03-26T00:19:06.786Z,20.50
2023-03-26T00:21:35.566Z,19.10
2023-03-26T00:24:06.468Z,19.20
2023-03-26T00:26:35.059Z,51.90
2023-03-26T00:29:04.234Z,99.90
2023-03-26T00:31:33.013Z,99.90
2023-03-26T00:34:04.088Z,99.90
2023-03-26T00:36:36.672Z,99.90
2023-03-26T00:39:06.327Z,99.90
2023-03-26T00:41:37.408Z,99.90
2023-03-26T00:44:06.260Z,99.90
2023-03-26T00:46:34.927Z,99.90
2023-03-26T00:49:05.120Z,99.90
2023-03-26T00:51:35.227Z,99.90
2023-03-26T00:54:04.001Z,99.90
2023-03-26T00:56:32.560Z,99.90
2023-03-26T00:59:01.613Z,99.90
2023-03-26T01:01:30.711Z,99.90
2023-03-26T01:04:08.620Z,99.90
2023-03-26T01:06:42.429Z,99.90
2023-03-26T01:09:16.164Z,99.90
2023-03-26T01:11:45.111Z,99.90
2023-03-26T01:14:14.674Z,99.90
2023-03-26T01:16:46.418Z,99.90
2023-03-26T01:19:17.754Z,99.90
2023-03-26T01:21:47.915Z,99.90
2023-03-26T01:24:19.104Z,99.90
2023-03-26T01:27:12.685Z,99.90
2023-03-26T01:29:44.085Z,99.90
2023-03-26T01:32:33.857Z,99.90
2023-03-26T01:35:12.529Z,99.90
2023-03-26T01:37:44.090Z,99.90
2023-03-26T01:40:18.427Z,99.90
2023-03-26T01:42:49.516Z,99.90
2023-03-26T01:45:19.237Z,99.90
2023-03-26T01:47:47.846Z,99.90
2023-03-26T01:50:16.512Z,99.90
2023-03-26T01:52:47.825Z,99.90
2023-03-26T01:55:18.853Z,99.90
2023-03-26T01:57:53.976Z,99.90
2023-03-26T02:00:25.104Z,99.90
2023-03-26T02:03:18.013Z,99.90
2023-03-26T02:05:52.678Z,96.30
2023-03-26T02:08:24.526Z,99.90
2023-03-26T02:10:56.670Z,99.90
2023-03-26T02:13:25.249Z,99.90
2023-03-26T02:15:58.132Z,99.90
2023-03-26T02:18:36.382Z,99.90
2023-03-26T02:21:07.492Z,99.90
2023-03-26T02:23:40.361Z,99.90
2023-03-26T02:26:11.930Z,99.90
2023-03-26T02:28:40.562Z,99.90
2023-03-26T02:31:10.999Z,99.90
2023-03-26T02:33:39.871Z,99.20
2023-03-26T02:36:12.952Z,94.90
2023-03-26T02:38:41.799Z,99.30
2023-03-26T02:41:11.954Z,96.60
2023-03-26T02:43:40.507Z,96.30
2023-03-26T02:46:09.159Z,99.90
2023-03-26T02:48:38.103Z,99.90
2023-03-26T02:51:07.018Z,99.90
2023-03-26T02:53:37.673Z,99.90
2023-03-26T02:56:07.337Z,99.90
2023-03-26T02:58:37.177Z,99.90
2023-03-26T03:01:06.300Z,99.90
2023-03-26T03:03:36.442Z,99.90
2023-03-26T03:06:05.983Z,99.90
2023-03-26T03:08:34.654Z,99.90
2023-03-26T03:11:04.374Z,99.90
2023-03-26T03:13:33.170Z,99.90
2023-03-26T03:16:03.646Z,99.90
2023-03-26T03:18:32.521Z,99.90
2023-03-26T03:21:01.472Z,99.90
2023-03-26T03:23:30.105Z,99.90
2023-03-26T03:25:59.225Z,99.90
2023-03-26T03:28:27.937Z,99.90
2023-03-26T03:30:59.347Z,99.90
2023-03-26T03:33:29.536Z,99.90
2023-03-26T03:35:59.764Z,99.90
2023-03-26T03:38:28.312Z,99.90
2023-03-26T03:40:56.790Z,99.90
2023-03-26T03:43:25.840Z,99.90
2023-03-26T03:45:54.619Z,99.90
2023-03-26T03:48:23.496Z,99.90
2023-03-26T03:50:54.334Z,99.90
2023-03-26T03:53:26.197Z,99.90
2023-03-26T03:55:55.476Z,99.90
2023-03-26T03:58:25.024Z,99.90
2023-03-26T04:00:54.029Z,99.90
2023-03-26T04:03:33.871Z,99.90
2023-03-26T04:06:07.417Z,99.90
2023-03-26T04:08:36.546Z,99.90
2023-03-26T04:11:05.862Z,99.90
2023-03-26T04:13:34.667Z,99.90
2023-03-26T04:16:03.511Z,99.90
2023-03-26T04:18:32.623Z,99.90
2023-03-26T04:21:03.386Z,99.90
2023-03-26T04:23:34.869Z,99.90
2023-03-26T04:26:06.653Z,99.90
2023-03-26T04:28:35.981Z,99.90
2023-03-26T04:31:04.931Z,99.90
2023-03-26T04:33:34.303Z,99.90
2023-03-26T04:36:04.028Z,99.90
2023-03-26T04:38:38.976Z,99.90
2023-03-26T04:41:08.758Z,99.90
2023-03-26T04:43:42.529Z,97.20
2023-03-26T04:46:12.102Z,99.90
2023-03-26T04:48:40.805Z,99.90
2023-03-26T04:51:10.279Z,99.90
2023-03-26T04:53:42.673Z,99.90
2023-03-26T04:56:14.931Z,99.90
2023-03-26T04:58:43.631Z,99.90
2023-03-26T05:01:12.357Z,99.90
2023-03-26T05:03:42.029Z,99.90
2023-03-26T05:06:11.548Z,93.80
2023-03-26T05:08:42.238Z,98.20
2023-03-26T05:11:12.070Z,93.00
2023-03-26T05:13:43.285Z,94.20
2023-03-26T05:16:12.511Z,99.90
2023-03-26T05:18:43.656Z,90.50
2023-03-26T05:21:12.224Z,84.90
2023-03-26T05:23:42.588Z,89.00
2023-03-26T05:26:11.456Z,80.40
2023-03-26T05:28:40.132Z,85.00
2023-03-26T05:31:10.201Z,78.70
2023-03-26T05:33:38.897Z,85.80
2023-03-26T05:36:09.816Z,79.20
2023-03-26T05:38:38.545Z,79.10
2023-03-26T05:41:09.492Z,80.90
2023-03-26T05:43:37.885Z,90.40
2023-03-26T05:46:07.469Z,72.40
2023-03-26T05:48:36.469Z,87.30
2023-03-26T05:51:05.488Z,77.60
2023-03-26T05:53:34.431Z,77.10
2023-03-26T05:56:03.522Z,80.50
2023-03-26T05:58:35.455Z,65.60
2023-03-26T06:01:06.265Z,69.60
2023-03-26T06:03:35.242Z,69.10
2023-03-26T06:06:07.902Z,64.70
2023-03-26T06:08:36.442Z,62.90
2023-03-26T06:11:08.282Z,63.50
2023-03-26T06:13:38.599Z,57.60
2023-03-26T06:16:08.024Z,57.90
2023-03-26T06:18:37.015Z,62.10
2023-03-26T06:21:05.825Z,67.50
2023-03-26T06:23:34.527Z,57.20
2023-03-26T06:26:03.613Z,58.00
2023-03-26T06:28:32.493Z,63.30
2023-03-26T06:31:03.536Z,60.50
2023-03-26T06:33:32.361Z,55.10
2023-03-26T06:36:04.125Z,53.30
2023-03-26T06:38:32.566Z,50.70
2023-03-26T06:41:04.811Z,51.50
2023-03-26T06:43:34.069Z,51.90
2023-03-26T06:46:04.671Z,46.40
2023-03-26T06:48:33.102Z,49.30
2023-03-26T06:51:02.167Z,50.30
2023-03-26T06:53:30.690Z,48.10
2023-03-26T06:56:00.133Z,46.60
2023-03-26T06:58:28.890Z,44.70
2023-03-26T07:00:57.932Z,46.30
2023-03-26T07:03:29.522Z,42.10
2023-03-26T07:06:00.640Z,43.00
2023-03-26T07:08:30.948Z,47.50
2023-03-26T07:11:00.651Z,44.00
2023-03-26T07:13:29.479Z,42.80
2023-03-26T07:15:58.304Z,41.80
2023-03-26T07:18:29.322Z,42.00
2023-03-26T07:20:58.307Z,42.90
2023-03-26T07:23:27.579Z,41.20
2023-03-26T07:25:57.211Z,42.20
2023-03-26T07:28:30.853Z,43.00
2023-03-26T07:31:06.731Z,43.30
2023-03-26T07:33:39.907Z,39.20
2023-03-26T07:36:14.919Z,38.70
2023-03-26T07:38:50.119Z,39.80
2023-03-26T07:41:20.952Z,40.80
2023-03-26T07:44:00.390Z,39.10
2023-03-26T07:46:31.834Z,40.90
2023-03-26T07:49:05.146Z,40.40
2023-03-26T07:51:34.845Z,38.00
2023-03-26T07:54:05.332Z,35.50
2023-03-26T07:56:36.515Z,36.90
2023-03-26T07:59:25.912Z,37.00
2023-03-26T08:02:01.538Z,36.00
2023-03-26T08:04:40.958Z,34.90
2023-03-26T08:07:13.104Z,35.00
2023-03-26T08:09:43.889Z,36.20
2023-03-26T08:12:16.522Z,34.30
2023-03-26T08:14:49.932Z,39.00
2023-03-26T08:17:21.012Z,47.50
2023-03-26T08:19:57.962Z,36.30
2023-03-26T08:22:28.367Z,32.10
